createdAt,value
2016-12-12T00:00:04.237Z,48.66
2016-12-12T00:00:44.773Z,48.47
2016-12-12T00:01:25.278Z,48.28
2016-12-12T00:02:05.786Z,48.57
2016-12-12T00:02:46.313Z,48.66
2016-12-12T00:03:26.839Z,48.18
2016-12-12T00:04:07.355Z,48.4
2016-12-12T00:04:47.887Z,48.01
2016-12-12T00:05:28.407Z,48.01
2016-12-12T00:06:08.919Z,47.89
2016-12-12T00:06:49.438Z,47.82
2016-12-12T00:07:29.970Z,47.89
2016-12-12T00:08:10.507Z,48.08
2016-12-12T00:08:51.021Z,48.01
2016-12-12T00:09:31.548Z,47.7
2016-12-12T00:10:12.161Z,47.82
2016-12-12T00:10:52.677Z,47.92
2016-12-12T00:11:33.193Z,47.92
2016-12-12T00:12:13.733Z,48.08
2016-12-12T00:12:54.262Z,47.99
2016-12-12T00:13:34.785Z,47.8
2016-12-12T00:14:15.326Z,47.72
2016-12-12T00:14:55.860Z,47.63
2016-12-12T00:15:36.397Z,48.01
2016-12-12T00:16:16.958Z,47.8
2016-12-12T00:16:57.479Z,47.8
2016-12-12T00:17:37.998Z,47.7
2016-12-12T00:18:18.518Z,47.82
2016-12-12T00:18:59.066Z,48.11
2016-12-12T00:19:39.605Z,48.08
2016-12-12T00:20:20.131Z,47.99
2016-12-12T00:21:00.646Z,47.89
2016-12-12T00:21:41.158Z,47.89
2016-12-12T00:22:21.692Z,48.08
2016-12-12T00:23:02.212Z,47.99
2016-12-12T00:23:42.743Z,48.01
2016-12-12T00:24:23.259Z,48.08
2016-12-12T00:25:03.780Z,47.82
2016-12-12T00:25:44.312Z,47.22
2016-12-12T00:26:24.864Z,47.53
2016-12-12T00:27:05.381Z,47.99
2016-12-12T00:27:45.955Z,47.22
2016-12-12T00:28:26.477Z,47.31
2016-12-12T00:29:07.001Z,47.31
2016-12-12T00:29:47.575Z,47.51
2016-12-12T00:30:28.123Z,47.22
2016-12-12T00:31:08.629Z,47.7
2016-12-12T00:31:49.152Z,47.7
2016-12-12T00:32:29.670Z,47.6
2016-12-12T00:33:10.192Z,47.8
2016-12-12T00:33:50.717Z,47.6
2016-12-12T00:34:31.234Z,47.6
2016-12-12T00:35:11.786Z,47.22
2016-12-12T00:35:52.303Z,47.99
2016-12-12T00:36:32.828Z,47.41
2016-12-12T00:37:13.412Z,47.22
2016-12-12T00:37:53.967Z,47.99
2016-12-12T00:38:34.504Z,47.99
2016-12-12T00:39:15.071Z,48.08
2016-12-12T00:39:55.612Z,47.8
2016-12-12T00:40:36.163Z,48.08
2016-12-12T00:41:16.700Z,47.99
2016-12-12T00:41:57.231Z,48.01
2016-12-12T00:42:37.759Z,47.6
2016-12-12T00:43:18.285Z,47.31
2016-12-12T00:43:58.810Z,47.31
2016-12-12T00:44:39.362Z,47.22
2016-12-12T00:45:19.882Z,47.41
2016-12-12T00:46:00.438Z,47.22
2016-12-12T00:46:40.987Z,47.41
2016-12-12T00:47:21.538Z,47.12
2016-12-12T00:48:02.060Z,47.41
2016-12-12T00:48:42.595Z,47.22
2016-12-12T00:49:23.131Z,47.22
2016-12-12T00:50:03.653Z,47.41
2016-12-12T00:50:44.166Z,47.03
2016-12-12T00:51:24.697Z,47.22
2016-12-12T00:52:05.216Z,47.41
2016-12-12T00:52:45.786Z,47.31
2016-12-12T00:53:26.332Z,47.31
2016-12-12T00:54:06.873Z,47.6
2016-12-12T00:54:47.422Z,47.51
2016-12-12T00:55:27.971Z,47.31
2016-12-12T00:56:08.517Z,47.22
2016-12-12T00:56:49.048Z,47.22
2016-12-12T00:57:29.576Z,47.31
2016-12-12T00:58:10.099Z,47.51
2016-12-12T00:58:50.629Z,47.51
2016-12-12T00:59:31.174Z,47.41
2016-12-12T01:00:11.746Z,47.31
2016-12-12T01:00:52.284Z,47.12
2016-12-12T01:01:32.832Z,47.31
2016-12-12T01:02:13.394Z,47.12
2016-12-12T01:02:53.923Z,47.31
2016-12-12T01:03:34.431Z,47.31
2016-12-12T01:04:14.938Z,47.41
2016-12-12T01:04:55.466Z,47.31
2016-12-12T01:05:35.977Z,47.22
2016-12-12T01:06:16.554Z,47.22
2016-12-12T01:06:57.086Z,47.41
2016-12-12T01:07:37.589Z,47.31
2016-12-12T01:08:18.110Z,47.03
2016-12-12T01:08:58.633Z,47.31
2016-12-12T01:09:39.155Z,47.22
2016-12-12T01:10:19.680Z,47.51
2016-12-12T01:11:00.215Z,47.31
2016-12-12T01:11:40.743Z,47.31
2016-12-12T01:12:21.285Z,47.51
2016-12-12T01:13:01.822Z,47.31
2016-12-12T01:13:42.354Z,47.22
2016-12-12T01:14:22.871Z,47.41
2016-12-12T01:15:03.382Z,47.31
2016-12-12T01:15:43.912Z,47.31
2016-12-12T01:16:24.418Z,47.31
2016-12-12T01:17:04.932Z,47.41
2016-12-12T01:17:45.443Z,47.41
2016-12-12T01:18:25.965Z,47.22
2016-12-12T01:19:06.507Z,47.31
2016-12-12T01:19:47.054Z,47.41
2016-12-12T01:20:27.580Z,47.41
2016-12-12T01:21:08.108Z,47.41
2016-12-12T01:21:48.642Z,47.51
2016-12-12T01:22:29.168Z,47.51
2016-12-12T01:23:09.685Z,47.41
2016-12-12T01:23:50.210Z,47.31
2016-12-12T01:24:30.738Z,47.51
2016-12-12T01:25:11.274Z,47.31
2016-12-12T01:25:51.814Z,47.41
2016-12-12T01:26:32.347Z,47.51
2016-12-12T01:27:12.876Z,47.6
2016-12-12T01:27:53.390Z,47.6
2016-12-12T01:28:33.941Z,47.6
2016-12-12T01:29:14.455Z,47.22
2016-12-12T01:29:54.993Z,47.6
2016-12-12T01:30:35.519Z,47.41
2016-12-12T01:31:16.061Z,47.6
2016-12-12T01:31:56.575Z,47.51
2016-12-12T01:32:37.087Z,47.51
2016-12-12T01:33:17.605Z,47.6
2016-12-12T01:33:58.116Z,47.51
2016-12-12T01:34:38.639Z,47.31
2016-12-12T01:35:19.150Z,47.03
2016-12-12T01:35:59.683Z,46.73
2016-12-12T01:36:40.226Z,46.45
2016-12-12T01:37:20.760Z,46.55
2016-12-12T01:38:01.290Z,46.73
2016-12-12T01:38:41.810Z,46.73
2016-12-12T01:39:22.341Z,46.83
2016-12-12T01:40:02.868Z,46.93
2016-12-12T01:40:43.383Z,46.45
2016-12-12T01:41:23.898Z,46.83
2016-12-12T01:42:04.424Z,46.93
2016-12-12T01:42:44.960Z,46.64
2016-12-12T01:43:25.486Z,46.35
2016-12-12T01:44:05.996Z,46.15
2016-12-12T01:44:46.530Z,46.06
2016-12-12T01:45:27.048Z,46.15
2016-12-12T01:46:07.586Z,46.06
2016-12-12T01:46:48.074Z,46.15
2016-12-12T01:47:28.588Z,46.25
2016-12-12T01:48:09.148Z,46.15
2016-12-12T01:48:49.646Z,46.06
2016-12-12T01:49:30.161Z,46.35
2016-12-12T01:50:10.685Z,46.83
2016-12-12T01:50:51.226Z,46.93
2016-12-12T01:51:31.815Z,46.64
2016-12-12T01:52:12.317Z,46.93
2016-12-12T01:52:52.839Z,46.73
2016-12-12T01:53:33.382Z,46.64
2016-12-12T01:54:13.895Z,46.83
2016-12-12T01:54:54.443Z,46.83
2016-12-12T01:55:34.958Z,47.03
2016-12-12T01:56:15.477Z,47.31
2016-12-12T01:56:56.014Z,47.41
2016-12-12T01:57:36.527Z,47.31
2016-12-12T01:58:17.076Z,47.31
2016-12-12T01:58:57.595Z,47.31
2016-12-12T01:59:38.121Z,47.41
2016-12-12T02:00:18.654Z,47.44
2016-12-12T02:00:59.174Z,47.22
2016-12-12T02:01:39.705Z,47.22
2016-12-12T02:02:20.232Z,47.51
2016-12-12T02:03:00.768Z,47.31
2016-12-12T02:03:41.291Z,47.22
2016-12-12T02:04:21.810Z,47.22
2016-12-12T02:05:02.328Z,47.41
2016-12-12T02:05:42.849Z,47.22
2016-12-12T02:06:23.357Z,47.31
2016-12-12T02:07:03.892Z,47.41
2016-12-12T02:07:44.419Z,47.99
2016-12-12T02:08:24.965Z,47.99
2016-12-12T02:09:05.486Z,47.41
2016-12-12T02:09:46.032Z,48.18
2016-12-12T02:10:26.540Z,47.22
2016-12-12T02:11:07.077Z,47.12
2016-12-12T02:11:47.595Z,47.22
2016-12-12T02:12:28.127Z,47.44
2016-12-12T02:13:08.629Z,47.51
2016-12-12T02:13:49.185Z,46.93
2016-12-12T02:14:29.698Z,47.63
2016-12-12T02:15:10.208Z,47.05
2016-12-12T02:15:50.721Z,47.03
2016-12-12T02:16:31.249Z,47.22
2016-12-12T02:17:11.787Z,47.03
2016-12-12T02:17:52.293Z,47.22
2016-12-12T02:18:32.835Z,47.03
2016-12-12T02:19:13.366Z,47.51
2016-12-12T02:19:53.886Z,47.51
2016-12-12T02:20:34.413Z,47.51
2016-12-12T02:21:14.966Z,47.41
2016-12-12T02:21:55.481Z,47.51
2016-12-12T02:22:36.020Z,47.53
2016-12-12T02:23:16.533Z,47.6
2016-12-12T02:23:57.079Z,47.51
2016-12-12T02:24:37.623Z,47.44
2016-12-12T02:25:18.189Z,47.53
2016-12-12T02:25:58.731Z,47.6
2016-12-12T02:26:39.292Z,47.12
2016-12-12T02:27:19.833Z,47.22
2016-12-12T02:28:00.387Z,46.73
2016-12-12T02:28:40.901Z,47.22
2016-12-12T02:29:21.419Z,47.03
2016-12-12T02:30:01.936Z,47.31
2016-12-12T02:30:42.447Z,47.22
2016-12-12T02:31:22.968Z,47.05
2016-12-12T02:32:03.485Z,47.31
2016-12-12T02:32:44.000Z,47.51
2016-12-12T02:33:24.528Z,47.41
2016-12-12T02:34:05.075Z,47.6
2016-12-12T02:34:45.597Z,47.24
2016-12-12T02:35:26.146Z,47.05
2016-12-12T02:36:06.697Z,47.31
2016-12-12T02:36:47.223Z,47.03
2016-12-12T02:37:27.725Z,47.34
2016-12-12T02:38:08.265Z,47.31
2016-12-12T02:38:48.794Z,47.12
2016-12-12T02:39:29.325Z,46.93
2016-12-12T02:40:09.847Z,47.31
2016-12-12T02:40:50.367Z,46.55
2016-12-12T02:41:30.882Z,46.93
2016-12-12T02:42:11.383Z,46.73
2016-12-12T02:42:51.927Z,47.03
2016-12-12T02:43:32.449Z,46.73
2016-12-12T02:44:13.022Z,47.22
2016-12-12T02:44:53.576Z,47.41
2016-12-12T02:45:34.091Z,46.73
2016-12-12T02:46:14.631Z,46.73
2016-12-12T02:46:55.150Z,46.45
2016-12-12T02:47:35.673Z,46.55
2016-12-12T02:48:16.178Z,46.76
2016-12-12T02:48:56.695Z,46.56
2016-12-12T02:49:37.217Z,47.24
2016-12-12T02:50:17.745Z,47.44
2016-12-12T02:50:58.274Z,46.56
2016-12-12T02:51:38.790Z,46.95
2016-12-12T02:52:19.317Z,46.56
2016-12-12T02:52:59.831Z,46.35
2016-12-12T02:53:40.384Z,46.93
2016-12-12T02:54:20.921Z,46.25
2016-12-12T02:55:01.465Z,46.64
2016-12-12T02:55:41.980Z,46.15
2016-12-12T02:56:22.526Z,45.87
2016-12-12T02:57:03.050Z,46.06
2016-12-12T02:57:43.589Z,46.45
2016-12-12T02:58:24.102Z,45.87
2016-12-12T02:59:04.622Z,45.87
2016-12-12T02:59:45.126Z,46.15
2016-12-12T03:00:25.634Z,45.97
2016-12-12T03:01:06.198Z,45.79
2016-12-12T03:01:46.737Z,45.97
2016-12-12T03:02:27.281Z,46.45
2016-12-12T03:03:07.806Z,45.77
2016-12-12T03:03:48.337Z,45.77
2016-12-12T03:04:28.884Z,45.97
2016-12-12T03:05:09.428Z,45.99
2016-12-12T03:05:49.969Z,45.97
2016-12-12T03:06:30.505Z,46.15
2016-12-12T03:07:11.027Z,46.06
2016-12-12T03:07:51.577Z,46.93
2016-12-12T03:08:32.102Z,46.83
2016-12-12T03:09:12.619Z,46.64
2016-12-12T03:09:53.140Z,46.45
2016-12-12T03:10:33.687Z,46.45
2016-12-12T03:11:14.187Z,46.45
2016-12-12T03:11:54.734Z,46.37
2016-12-12T03:12:35.238Z,46.55
2016-12-12T03:13:15.758Z,46.64
2016-12-12T03:13:56.287Z,46.55
2016-12-12T03:14:36.828Z,46.73
2016-12-12T03:15:17.339Z,46.93
2016-12-12T03:15:57.864Z,46.45
2016-12-12T03:16:38.366Z,46.93
2016-12-12T03:17:18.885Z,46.64
2016-12-12T03:17:59.405Z,46.83
2016-12-12T03:18:40.003Z,46.64
2016-12-12T03:19:20.513Z,46.55
2016-12-12T03:20:01.023Z,46.55
2016-12-12T03:20:41.546Z,46.64
2016-12-12T03:21:22.107Z,46.55
2016-12-12T03:22:02.618Z,46.73
2016-12-12T03:22:43.134Z,46.73
2016-12-12T03:23:23.659Z,46.55
2016-12-12T03:24:04.187Z,46.83
2016-12-12T03:24:44.710Z,46.64
2016-12-12T03:25:25.211Z,46.64
2016-12-12T03:26:05.735Z,46.55
2016-12-12T03:26:46.290Z,46.83
2016-12-12T03:27:26.805Z,46.64
2016-12-12T03:28:07.319Z,46.64
2016-12-12T03:28:47.843Z,46.64
2016-12-12T03:29:28.358Z,46.64
2016-12-12T03:30:08.939Z,46.64
2016-12-12T03:30:49.452Z,46.73
2016-12-12T03:31:29.974Z,46.55
2016-12-12T03:32:10.489Z,46.73
2016-12-12T03:32:51.009Z,46.73
2016-12-12T03:33:31.530Z,46.73
2016-12-12T03:34:12.044Z,46.73
2016-12-12T03:34:52.559Z,46.83
2016-12-12T03:35:33.097Z,46.55
2016-12-12T03:36:13.599Z,46.55
2016-12-12T03:36:54.118Z,46.55
2016-12-12T03:37:34.627Z,46.83
2016-12-12T03:38:15.183Z,46.86
2016-12-12T03:38:55.692Z,46.55
2016-12-12T03:39:36.220Z,46.73
2016-12-12T03:40:16.760Z,46.83
2016-12-12T03:40:57.285Z,46.45
2016-12-12T03:41:37.827Z,46.64
2016-12-12T03:42:18.348Z,46.64
2016-12-12T03:42:58.872Z,46.55
2016-12-12T03:43:39.399Z,46.35
2016-12-12T03:44:19.910Z,46.25
2016-12-12T03:45:00.421Z,46.55
2016-12-12T03:45:40.944Z,46.55
2016-12-12T03:46:21.470Z,46.64
2016-12-12T03:47:01.995Z,46.45
2016-12-12T03:47:42.521Z,46.45
2016-12-12T03:48:23.046Z,46.25
2016-12-12T03:49:03.584Z,46.45
2016-12-12T03:49:44.117Z,46.64
2016-12-12T03:50:24.633Z,46.73
2016-12-12T03:51:05.156Z,46.73
2016-12-12T03:51:45.705Z,46.45
2016-12-12T03:52:26.246Z,46.56
2016-12-12T03:53:06.782Z,47.31
2016-12-12T03:53:47.303Z,46.73
2016-12-12T03:54:27.825Z,47.41
2016-12-12T03:55:08.348Z,46.73
2016-12-12T03:55:48.874Z,47.12
2016-12-12T03:56:29.376Z,47.31
2016-12-12T03:57:09.895Z,47.03
2016-12-12T03:57:50.426Z,46.55
2016-12-12T03:58:30.983Z,46.73
2016-12-12T03:59:11.510Z,46.83
2016-12-12T03:59:52.070Z,46.73
2016-12-12T04:00:32.583Z,46.93
2016-12-12T04:01:13.101Z,46.93
2016-12-12T04:01:53.637Z,46.45
2016-12-12T04:02:34.162Z,46.73
2016-12-12T04:03:14.678Z,46.64
2016-12-12T04:03:55.212Z,46.64
2016-12-12T04:04:35.765Z,46.45
2016-12-12T04:05:16.292Z,46.35
2016-12-12T04:05:56.843Z,46.15
2016-12-12T04:06:37.387Z,46.15
2016-12-12T04:07:17.932Z,46.25
2016-12-12T04:07:58.462Z,46.25
2016-12-12T04:08:38.980Z,46.08
2016-12-12T04:09:19.489Z,46.15
2016-12-12T04:10:00.054Z,45.97
2016-12-12T04:10:40.592Z,46.15
2016-12-12T04:11:21.133Z,46.06
2016-12-12T04:12:01.661Z,45.97
2016-12-12T04:12:42.228Z,46.06
2016-12-12T04:13:22.727Z,46.15
2016-12-12T04:14:03.268Z,46.15
2016-12-12T04:14:43.786Z,46.15
2016-12-12T04:15:24.301Z,45.77
2016-12-12T04:16:04.906Z,46.08
2016-12-12T04:16:45.436Z,46.06
2016-12-12T04:17:26.002Z,46.15
2016-12-12T04:18:06.555Z,46.25
2016-12-12T04:18:47.069Z,46.15
2016-12-12T04:19:27.596Z,46.37
2016-12-12T04:20:08.131Z,45.97
2016-12-12T04:20:48.650Z,46.06
2016-12-12T04:21:29.211Z,46.06
2016-12-12T04:22:09.746Z,46.18
2016-12-12T04:22:50.301Z,46.25
2016-12-12T04:23:30.832Z,46.15
2016-12-12T04:24:11.371Z,45.97
2016-12-12T04:24:51.893Z,46.06
2016-12-12T04:25:32.416Z,46.35
2016-12-12T04:26:12.935Z,46.25
2016-12-12T04:26:53.466Z,46.15
2016-12-12T04:27:34.026Z,46.35
2016-12-12T04:28:14.567Z,46.15
2016-12-12T04:28:55.091Z,45.89
2016-12-12T04:29:35.613Z,45.68
2016-12-12T04:30:16.144Z,45.77
2016-12-12T04:30:56.662Z,45.77
2016-12-12T04:31:37.192Z,45.97
2016-12-12T04:32:17.701Z,45.97
2016-12-12T04:32:58.219Z,45.97
2016-12-12T04:33:38.767Z,46.45
2016-12-12T04:34:19.283Z,45.97
2016-12-12T04:34:59.820Z,46.25
2016-12-12T04:35:40.354Z,45.87
2016-12-12T04:36:20.915Z,45.68
2016-12-12T04:37:01.455Z,45.77
2016-12-12T04:37:41.999Z,46.15
2016-12-12T04:38:22.508Z,45.97
2016-12-12T04:39:03.063Z,45.97
2016-12-12T04:39:43.583Z,45.97
2016-12-12T04:40:24.133Z,45.97
2016-12-12T04:41:04.678Z,46.06
2016-12-12T04:41:45.189Z,45.87
2016-12-12T04:42:25.711Z,46.06
2016-12-12T04:43:06.235Z,46.15
2016-12-12T04:43:46.759Z,45.97
2016-12-12T04:44:27.307Z,46.06
2016-12-12T04:45:07.862Z,45.58
2016-12-12T04:45:48.403Z,45.39
2016-12-12T04:46:28.919Z,45.77
2016-12-12T04:47:09.454Z,45.58
2016-12-12T04:47:49.993Z,45.58
2016-12-12T04:48:30.516Z,45.97
2016-12-12T04:49:11.058Z,45.68
2016-12-12T04:49:51.589Z,45.77
2016-12-12T04:50:32.106Z,45.87
2016-12-12T04:51:12.632Z,45.68
2016-12-12T04:51:53.154Z,45.68
2016-12-12T04:52:33.683Z,45.87
2016-12-12T04:53:14.224Z,45.87
2016-12-12T04:53:54.742Z,45.68
2016-12-12T04:54:35.274Z,45.68
2016-12-12T04:55:15.789Z,45.77
2016-12-12T04:55:56.326Z,45.89
2016-12-12T04:56:36.841Z,45.97
2016-12-12T04:57:17.367Z,45.68
2016-12-12T04:57:57.876Z,45.77
2016-12-12T04:58:38.398Z,45.39
2016-12-12T04:59:18.924Z,46.25
2016-12-12T04:59:59.440Z,46.18
2016-12-12T05:00:39.973Z,46.15
2016-12-12T05:01:20.482Z,45.79
2016-12-12T05:02:01.017Z,45.7
2016-12-12T05:02:41.524Z,45.51
2016-12-12T05:03:22.036Z,45.87
2016-12-12T05:04:02.580Z,45.48
2016-12-12T05:04:43.104Z,45.6
2016-12-12T05:05:23.646Z,45.97
2016-12-12T05:06:04.170Z,45.97
2016-12-12T05:06:44.687Z,45.77
2016-12-12T05:07:25.215Z,45.58
2016-12-12T05:08:05.737Z,45.68
2016-12-12T05:08:46.258Z,45.77
2016-12-12T05:09:26.768Z,45.97
2016-12-12T05:10:07.335Z,45.97
2016-12-12T05:10:47.858Z,46.08
2016-12-12T05:11:28.364Z,45.99
2016-12-12T05:12:08.904Z,45.89
2016-12-12T05:12:49.431Z,45.6
2016-12-12T05:13:29.969Z,45.89
2016-12-12T05:14:10.501Z,45.6
2016-12-12T05:14:51.025Z,45.41
2016-12-12T05:15:31.535Z,45.6
2016-12-12T05:16:12.056Z,45.68
2016-12-12T05:16:52.589Z,45.7
2016-12-12T05:17:33.083Z,45.39
2016-12-12T05:18:13.606Z,45.31
2016-12-12T05:18:54.124Z,45.79
2016-12-12T05:19:34.642Z,45.48
2016-12-12T05:20:15.161Z,45.41
2016-12-12T05:20:55.668Z,45.58
2016-12-12T05:21:36.174Z,45.48
2016-12-12T05:22:16.699Z,45.7
2016-12-12T05:22:57.216Z,45.89
2016-12-12T05:23:37.736Z,45.77
2016-12-12T05:24:18.257Z,46.28
2016-12-12T05:24:58.806Z,45.89
2016-12-12T05:25:39.363Z,45.68
2016-12-12T05:26:19.897Z,45.41
2016-12-12T05:27:00.440Z,45.39
2016-12-12T05:27:40.983Z,45.51
2016-12-12T05:28:21.517Z,45.41
2016-12-12T05:29:02.041Z,45.51
2016-12-12T05:29:42.558Z,45.6
2016-12-12T05:30:23.114Z,45.51
2016-12-12T05:31:03.664Z,45.41
2016-12-12T05:31:44.194Z,45.79
2016-12-12T05:32:24.718Z,45.51
2016-12-12T05:33:05.264Z,45.77
2016-12-12T05:33:45.808Z,45.41
2016-12-12T05:34:26.330Z,45.1
2016-12-12T05:35:06.874Z,45.21
2016-12-12T05:35:47.400Z,44.81
2016-12-12T05:36:27.927Z,45.21
2016-12-12T05:37:08.441Z,45.2
2016-12-12T05:37:48.954Z,45.39
2016-12-12T05:38:29.470Z,45.1
2016-12-12T05:39:10.021Z,45
2016-12-12T05:39:50.562Z,44.64
2016-12-12T05:40:31.084Z,44.45
2016-12-12T05:41:11.600Z,44.93
2016-12-12T05:41:52.132Z,44.64
2016-12-12T05:42:32.661Z,44.64
2016-12-12T05:43:13.196Z,44.93
2016-12-12T05:43:53.728Z,44.93
2016-12-12T05:44:34.246Z,44.64
2016-12-12T05:45:14.755Z,44.54
2016-12-12T05:45:55.274Z,44.64
2016-12-12T05:46:35.806Z,44.73
2016-12-12T05:47:16.334Z,44.73
2016-12-12T05:47:56.900Z,45.03
2016-12-12T05:48:37.431Z,44.71
2016-12-12T05:49:17.964Z,44.73
2016-12-12T05:49:58.469Z,44.81
2016-12-12T05:50:39.022Z,45.1
2016-12-12T05:51:19.564Z,44.83
2016-12-12T05:52:00.135Z,44.9
2016-12-12T05:52:40.689Z,45.51
2016-12-12T05:53:21.204Z,45
2016-12-12T05:54:01.739Z,45.58
2016-12-12T05:54:42.277Z,45.6
2016-12-12T05:55:22.807Z,45.29
2016-12-12T05:56:03.327Z,45.99
2016-12-12T05:56:43.841Z,45.7
2016-12-12T05:57:24.363Z,45.89
2016-12-12T05:58:04.871Z,46.37
2016-12-12T05:58:45.391Z,45.77
2016-12-12T05:59:25.934Z,45.99
2016-12-12T06:00:06.444Z,45.99
2016-12-12T06:00:46.992Z,45.99
2016-12-12T06:01:27.489Z,45.89
2016-12-12T06:02:08.000Z,46.18
2016-12-12T06:02:48.531Z,46.18
2016-12-12T06:03:29.091Z,45.97
2016-12-12T06:04:09.604Z,45.79
2016-12-12T06:04:50.122Z,46.18
2016-12-12T06:05:30.675Z,46.18
2016-12-12T06:06:11.192Z,46.66
2016-12-12T06:06:51.715Z,46.73
2016-12-12T06:07:32.257Z,46.95
2016-12-12T06:08:12.837Z,46.37
2016-12-12T06:08:53.369Z,46.18
2016-12-12T06:09:33.888Z,45.89
2016-12-12T06:10:14.410Z,45.79
2016-12-12T06:10:54.930Z,46.08
2016-12-12T06:11:35.453Z,46.08
2016-12-12T06:12:15.973Z,46.18
2016-12-12T06:12:56.506Z,46.28
2016-12-12T06:13:37.054Z,46.28
2016-12-12T06:14:17.578Z,46.18
2016-12-12T06:14:58.116Z,46.66
2016-12-12T06:15:38.622Z,46.56
2016-12-12T06:16:19.173Z,46.66
2016-12-12T06:16:59.714Z,46.76
2016-12-12T06:17:40.270Z,46.86
2016-12-12T06:18:20.793Z,46.76
2016-12-12T06:19:01.324Z,46.56
2016-12-12T06:19:41.872Z,46.76
2016-12-12T06:20:22.424Z,46.76
2016-12-12T06:21:02.988Z,46.66
2016-12-12T06:21:43.522Z,46.28
2016-12-12T06:22:24.040Z,46.66
2016-12-12T06:23:04.559Z,46.86
2016-12-12T06:23:45.092Z,46.66
2016-12-12T06:24:25.620Z,46.56
2016-12-12T06:25:06.125Z,46.76
2016-12-12T06:25:46.644Z,46.56
2016-12-12T06:26:27.196Z,46.73
2016-12-12T06:27:07.718Z,47.14
2016-12-12T06:27:48.289Z,46.86
2016-12-12T06:28:28.829Z,46.76
2016-12-12T06:29:09.369Z,46.95
2016-12-12T06:29:49.899Z,46.66
2016-12-12T06:30:30.424Z,46.47
2016-12-12T06:31:10.960Z,46.47
2016-12-12T06:31:51.545Z,46.06
2016-12-12T06:32:32.106Z,46.18
2016-12-12T06:33:12.615Z,46.08
2016-12-12T06:33:53.135Z,46.18
2016-12-12T06:34:33.754Z,46.18
2016-12-12T06:35:14.287Z,46.08
2016-12-12T06:35:54.820Z,46.18
2016-12-12T06:36:35.358Z,46.18
2016-12-12T06:37:15.869Z,45.99
2016-12-12T06:37:56.383Z,45.99
2016-12-12T06:38:36.903Z,45.7
2016-12-12T06:39:17.437Z,45.7
2016-12-12T06:39:57.987Z,45.77
2016-12-12T06:40:38.539Z,45.99
2016-12-12T06:41:19.052Z,46.28
2016-12-12T06:41:59.583Z,46.28
2016-12-12T06:42:40.117Z,45.99
2016-12-12T06:43:20.650Z,46.18
2016-12-12T06:44:01.169Z,45.99
2016-12-12T06:44:41.697Z,46.08
2016-12-12T06:45:22.221Z,46.28
2016-12-12T06:46:02.781Z,46.08
2016-12-12T06:46:43.402Z,46.35
2016-12-12T06:47:23.947Z,46.35
2016-12-12T06:48:04.506Z,46.18
2016-12-12T06:48:45.036Z,45.97
2016-12-12T06:49:25.554Z,45.7
2016-12-12T06:50:06.061Z,45.99
2016-12-12T06:50:46.584Z,45.48
2016-12-12T06:51:27.102Z,45.31
2016-12-12T06:52:07.626Z,45.39
2016-12-12T06:52:48.157Z,45.68
2016-12-12T06:53:28.701Z,45.7
2016-12-12T06:54:09.227Z,45.41
2016-12-12T06:54:49.753Z,45.68
2016-12-12T06:55:30.256Z,45.87
2016-12-12T06:56:10.801Z,45.48
2016-12-12T06:56:51.334Z,45.41
2016-12-12T06:57:31.858Z,45.99
2016-12-12T06:58:12.381Z,45.79
2016-12-12T06:58:52.921Z,45.79
2016-12-12T06:59:33.432Z,45.7
2016-12-12T07:00:13.948Z,45.99
2016-12-12T07:00:54.465Z,45.6
2016-12-12T07:01:34.966Z,45.99
2016-12-12T07:02:15.492Z,45.79
2016-12-12T07:02:56.028Z,45.39
2016-12-12T07:03:36.548Z,45.41
2016-12-12T07:04:17.080Z,45.51
2016-12-12T07:04:57.597Z,45.03
2016-12-12T07:05:38.109Z,45.03
2016-12-12T07:06:18.619Z,44.83
2016-12-12T07:06:59.140Z,45.39
2016-12-12T07:07:39.676Z,45.51
2016-12-12T07:08:20.217Z,45.51
2016-12-12T07:09:00.752Z,45.7
2016-12-12T07:09:41.268Z,45.7
2016-12-12T07:10:21.780Z,46.18
2016-12-12T07:11:02.385Z,46.66
2016-12-12T07:11:42.921Z,47.44
2016-12-12T07:12:23.462Z,48.3
2016-12-12T07:13:04.042Z,50.13
2016-12-12T07:13:44.571Z,51.1
2016-12-12T07:14:25.085Z,51.29
2016-12-12T07:15:05.620Z,50.62
2016-12-12T07:15:46.157Z,50.23
2016-12-12T07:16:26.671Z,51.68
2016-12-12T07:17:07.199Z,52.55
2016-12-12T07:17:47.728Z,52.64
2016-12-12T07:18:28.239Z,52.06
2016-12-12T07:19:08.768Z,51.1
2016-12-12T07:19:49.287Z,51
2016-12-12T07:20:29.795Z,49.17
2016-12-12T07:21:10.323Z,48.69
2016-12-12T07:21:50.870Z,48.59
2016-12-12T07:22:31.465Z,48.49
2016-12-12T07:23:12.023Z,48.49
2016-12-12T07:23:52.547Z,48.59
2016-12-12T07:24:33.052Z,48.3
2016-12-12T07:25:13.594Z,48.4
2016-12-12T07:25:54.125Z,47.92
2016-12-12T07:26:34.677Z,48.4
2016-12-12T07:27:15.193Z,47.92
2016-12-12T07:27:55.699Z,47.72
2016-12-12T07:28:36.240Z,47.92
2016-12-12T07:29:16.752Z,47.82
2016-12-12T07:29:57.532Z,47.92
2016-12-12T07:30:38.205Z,48.11
2016-12-12T07:31:18.850Z,47.92
2016-12-12T07:31:59.799Z,47.82
2016-12-12T07:32:40.445Z,48.11
2016-12-12T07:33:20.975Z,47.82
2016-12-12T07:34:01.638Z,48.01
2016-12-12T07:34:42.275Z,47.82
2016-12-12T07:35:22.813Z,48.11
2016-12-12T07:36:03.329Z,48.01
2016-12-12T07:36:43.874Z,48.01
2016-12-12T07:37:24.528Z,47.92
2016-12-12T07:38:05.073Z,48.11
2016-12-12T07:38:45.583Z,48.01
2016-12-12T07:39:26.108Z,48.11
2016-12-12T07:40:06.759Z,48.11
2016-12-12T07:40:47.287Z,48.01
2016-12-12T07:41:27.821Z,48.01
2016-12-12T07:42:08.359Z,48.01
2016-12-12T07:42:48.885Z,48.01
2016-12-12T07:43:29.391Z,48.11
2016-12-12T07:44:10.068Z,48.01
2016-12-12T07:44:50.554Z,48.11
2016-12-12T07:45:31.350Z,48.11
2016-12-12T07:46:11.876Z,48.11
2016-12-12T07:46:53.166Z,47.92
2016-12-12T07:47:32.993Z,47.72
2016-12-12T07:48:13.716Z,48.11
2016-12-12T07:48:54.242Z,48.11
2016-12-12T07:49:34.913Z,47.72
2016-12-12T07:50:15.452Z,48.01
2016-12-12T07:50:55.972Z,47.92
2016-12-12T07:51:36.496Z,48.11
2016-12-12T07:52:17.041Z,47.82
2016-12-12T07:52:57.576Z,47.72
2016-12-12T07:53:38.108Z,47.82
2016-12-12T07:54:18.638Z,47.82
2016-12-12T07:54:59.171Z,47.92
2016-12-12T07:55:39.694Z,47.63
2016-12-12T07:56:20.257Z,47.63
2016-12-12T07:57:00.779Z,48.11
2016-12-12T07:57:41.329Z,47.63
2016-12-12T07:58:21.856Z,47.72
2016-12-12T07:59:02.366Z,47.82
2016-12-12T07:59:42.942Z,48.4
2016-12-12T08:00:23.464Z,47.92
2016-12-12T08:01:03.984Z,48.01
2016-12-12T08:01:44.510Z,47.82
2016-12-12T08:02:25.016Z,48.21
2016-12-12T08:03:05.557Z,47.82
2016-12-12T08:03:46.093Z,48.11
2016-12-12T08:04:26.614Z,48.01
2016-12-12T08:05:07.204Z,47.82
2016-12-12T08:05:47.720Z,48.01
2016-12-12T08:06:28.237Z,48.11
2016-12-12T08:07:08.784Z,48.01
2016-12-12T08:07:49.327Z,48.01
2016-12-12T08:08:29.873Z,48.21
2016-12-12T08:09:10.405Z,47.44
2016-12-12T08:09:50.939Z,47.53
2016-12-12T08:10:31.493Z,47.24
2016-12-12T08:11:12.021Z,47.24
2016-12-12T08:11:52.571Z,47.34
2016-12-12T08:12:33.099Z,47.34
2016-12-12T08:13:13.625Z,47.63
2016-12-12T08:13:54.190Z,47.44
2016-12-12T08:14:34.750Z,47.44
2016-12-12T08:15:15.346Z,47.53
2016-12-12T08:15:55.881Z,47.63
2016-12-12T08:16:36.443Z,47.05
2016-12-12T08:17:17.000Z,47.05
2016-12-12T08:17:57.514Z,47.14
2016-12-12T08:18:38.054Z,47.14
2016-12-12T08:19:18.555Z,47.24
2016-12-12T08:19:59.090Z,47.34
2016-12-12T08:20:39.632Z,47.34
2016-12-12T08:21:20.145Z,46.56
2016-12-12T08:22:00.696Z,47.05
2016-12-12T08:22:41.224Z,46.47
2016-12-12T08:23:21.772Z,46.66
2016-12-12T08:24:02.292Z,46.56
2016-12-12T08:24:42.835Z,46.56
2016-12-12T08:25:23.367Z,46.66
2016-12-12T08:26:03.914Z,46.95
2016-12-12T08:26:44.431Z,46.66
2016-12-12T08:27:24.959Z,46.95
2016-12-12T08:28:05.503Z,46.47
2016-12-12T08:28:46.046Z,46.47
2016-12-12T08:29:26.573Z,46.28
2016-12-12T08:30:07.100Z,46.56
2016-12-12T08:30:47.639Z,46.37
2016-12-12T08:31:28.153Z,46.18
2016-12-12T08:32:08.678Z,45.99
2016-12-12T08:32:49.194Z,46.18
2016-12-12T08:33:29.738Z,46.47
2016-12-12T08:34:10.284Z,46.18
2016-12-12T08:34:50.816Z,46.28
2016-12-12T08:35:31.342Z,45.7
2016-12-12T08:36:11.885Z,45.89
2016-12-12T08:36:52.438Z,45.79
2016-12-12T08:37:32.975Z,45.7
2016-12-12T08:38:13.481Z,46.08
2016-12-12T08:38:54.010Z,45.89
2016-12-12T08:39:34.541Z,45.99
2016-12-12T08:40:15.056Z,45.89
2016-12-12T08:40:55.575Z,46.08
2016-12-12T08:41:36.085Z,46.18
2016-12-12T08:42:16.610Z,46.08
2016-12-12T08:42:57.131Z,45.6